Time;durP1;ratioP1;P1;durP2;ratioP2;P2;SDS_P1;SDS_P2;PMS_P1;PMS_P2;Temp;Humidity;BMP_temperature;BMP_pressure;BME280_temperature;BME280_humidity;BME280_pressure;Samples;Min_cycle;Max_cycle;Signal;HPM_P1;HPM_P2
2022/01/12 00:03:53;;;;;;;35.38;13.75;;;;;;;;;;8376933;28;20044;-73
2022/01/12 00:07:55;;;;;;;42.17;14.40;;;;;;;;;;8376859;28;20512;-73
2022/01/12 00:11:59;;;;;;;33.58;14.07;;;;;;;;;;8390090;28;20041;-73
2022/01/12 00:16:02;;;;;;;48.40;18.25;;;;;;;;;;8392431;28;20045;-73
2022/01/12 00:20:07;;;;;;;44.05;16.27;;;;;;;;;;8388372;28;20056;-73
2022/01/12 00:24:09;;;;;;;36.45;13.68;;;;;;;;;;8385952;28;20178;-73
2022/01/12 00:36:53;;;;;;;36.00;13.55;;;;;;;;;;8390909;28;20526;-73
2022/01/12 00:40:55;;;;;;;38.25;14.80;;;;;;;;;;8386195;28;20044;-73
2022/01/12 00:45:01;;;;;;;41.08;15.27;;;;;;;;;;8384650;28;20048;-73
2022/01/12 00:49:03;;;;;;;37.10;15.70;;;;;;;;;;8387418;28;20139;-73
2022/01/12 00:53:08;;;;;;;29.02;13.98;;;;;;;;;;8391553;28;20568;-73
2022/01/12 00:57:11;;;;;;;35.75;12.77;;;;;;;;;;8389177;28;20043;-73
2022/01/12 01:01:13;;;;;;;35.45;13.65;;;;;;;;;;8384686;28;20052;-73
2022/01/12 01:05:19;;;;;;;31.45;13.27;;;;;;;;;;8384578;28;20049;-73
2022/01/12 01:09:24;;;;;;;31.70;12.20;;;;;;;;;;8393343;28;20041;-73
2022/01/12 01:13:34;;;;;;;30.67;13.13;;;;;;;;;;8380082;28;20052;-73
2022/01/12 01:26:19;;;;;;;30.77;12.02;;;;;;;;;;8384221;28;20048;-73
2022/01/12 01:30:22;;;;;;;32.05;12.55;;;;;;;;;;8393356;28;20047;-73
2022/01/12 01:34:26;;;;;;;29.60;11.75;;;;;;;;;;8387691;28;20059;-73
2022/01/12 01:38:29;;;;;;;33.15;12.57;;;;;;;;;;8384279;28;20048;-74
2022/01/12 01:42:53;;;;;;;33.22;12.07;;;;;;;;;;8384198;28;20127;-73
2022/01/12 01:55:35;;;;;;;27.30;11.77;;;;;;;;;;8395583;28;20047;-73
2022/01/12 01:59:39;;;;;;;33.17;13.27;;;;;;;;;;8396174;28;20053;-73
2022/01/12 02:03:43;;;;;;;42.63;14.52;;;;;;;;;;8397063;28;20075;-74
2022/01/12 02:07:45;;;;;;;32.63;12.93;;;;;;;;;;8402224;28;20135;-73
2022/01/12 02:11:56;;;;;;;35.38;13.77;;;;;;;;;;8402173;28;20123;-73
2022/01/12 02:16:01;;;;;;;33.40;12.90;;;;;;;;;;8402608;28;20089;-73
2022/01/12 02:20:29;;;;;;;27.65;12.60;;;;;;;;;;8401551;28;20148;-73
2022/01/12 02:41:57;;;;;;;33.42;14.18;;;;;;;;;;8401357;28;20471;-72
2022/01/12 02:54:51;;;;;;;33.03;12.80;;;;;;;;;;8376155;28;20105;-73
2022/01/12 02:58:58;;;;;;;38.28;14.68;;;;;;;;;;8401175;28;20055;-73
2022/01/12 03:03:03;;;;;;;34.28;13.48;;;;;;;;;;8400656;28;20098;-73
2022/01/12 03:07:15;;;;;;;34.00;15.05;;;;;;;;;;8400996;28;20119;-73
2022/01/12 03:11:19;;;;;;;29.55;12.80;;;;;;;;;;8400439;28;20041;-73
2022/01/12 03:15:23;;;;;;;35.03;13.95;;;;;;;;;;8400124;28;20051;-73
2022/01/12 03:19:26;;;;;;;42.92;16.08;;;;;;;;;;8399793;28;20060;-73
2022/01/12 03:23:28;;;;;;;34.38;13.30;;;;;;;;;;8400481;28;20044;-73
2022/01/12 03:27:31;;;;;;;35.50;14.88;;;;;;;;;;8400372;28;20052;-73
2022/01/12 03:31:36;;;;;;;31.00;12.35;;;;;;;;;;8399781;28;20041;-81
2022/01/12 03:35:50;;;;;;;25.30;9.75;;;;;;;;;;8400070;28;20051;-73
2022/01/12 03:39:52;;;;;;;35.45;14.95;;;;;;;;;;8399937;28;20056;-73
2022/01/12 03:43:56;;;;;;;26.55;11.55;;;;;;;;;;8399741;28;20045;-72
2022/01/12 03:47:59;;;;;;;23.58;9.18;;;;;;;;;;8399219;28;20541;-73
2022/01/12 03:52:02;;;;;;;17.05;8.32;;;;;;;;;;8399539;28;20044;-73
2022/01/12 03:56:05;;;;;;;15.27;7.45;;;;;;;;;;8399041;28;20044;-73
2022/01/12 04:00:09;;;;;;;16.50;7.80;;;;;;;;;;8398871;28;20076;-73
2022/01/12 04:04:20;;;;;;;15.20;7.22;;;;;;;;;;8399646;28;20102;-73
2022/01/12 04:08:23;;;;;;;15.30;7.18;;;;;;;;;;8399144;28;20056;-73
2022/01/12 04:12:28;;;;;;;13.07;6.50;;;;;;;;;;8399039;28;20576;-73
2022/01/12 04:16:32;;;;;;;10.73;6.15;;;;;;;;;;8398831;28;20049;-73
2022/01/12 04:20:43;;;;;;;16.85;7.57;;;;;;;;;;8398809;28;20490;-73
2022/01/12 04:24:46;;;;;;;13.02;6.78;;;;;;;;;;8398733;28;20063;-73
2022/01/12 04:28:48;;;;;;;13.68;6.55;;;;;;;;;;8397479;28;20048;-73
2022/01/12 04:32:51;;;;;;;16.10;7.20;;;;;;;;;;8398281;28;20178;-72
2022/01/12 04:36:55;;;;;;;18.35;7.47;;;;;;;;;;8398219;28;20044;-73
2022/01/12 04:40:58;;;;;;;16.52;8.10;;;;;;;;;;8397739;28;20048;-73
2022/01/12 04:45:13;;;;;;;19.88;8.27;;;;;;;;;;8398275;28;20128;-73
2022/01/12 04:49:47;;;;;;;14.18;7.97;;;;;;;;;;8397860;28;20123;-77
2022/01/12 04:53:52;;;;;;;18.17;7.65;;;;;;;;;;8397454;28;20048;-77
2022/01/12 04:57:55;;;;;;;17.55;7.75;;;;;;;;;;8397711;28;20048;-73
2022/01/12 05:02:11;;;;;;;20.67;8.45;;;;;;;;;;8397031;28;20045;-73
2022/01/12 05:06:36;;;;;;;23.38;8.80;;;;;;;;;;8397226;28;20127;-73
2022/01/12 05:15:08;;;;;;;18.27;7.35;;;;;;;;;;8397466;28;20521;-73
2022/01/12 05:19:10;;;;;;;21.10;8.25;;;;;;;;;;8396934;28;20132;-73
2022/01/12 05:23:13;;;;;;;40.33;15.25;;;;;;;;;;8396749;28;20048;-73
2022/01/12 05:27:17;;;;;;;19.83;7.68;;;;;;;;;;8396733;28;20048;-73
2022/01/12 05:31:20;;;;;;;26.55;10.27;;;;;;;;;;8397128;28;20056;-73
2022/01/12 05:35:24;;;;;;;19.38;8.77;;;;;;;;;;8397067;28;20127;-73
2022/01/12 05:39:27;;;;;;;17.25;7.68;;;;;;;;;;8398925;28;20072;-73
2022/01/12 05:43:33;;;;;;;14.52;7.50;;;;;;;;;;8403657;28;20068;-73
2022/01/12 05:49:33;;;;;;;22.58;7.47;;;;;;;;;;8403066;28;20052;-73
2022/01/12 05:52:01;;;;;;;62.25;24.35;;;;;;;;;;8402902;28;20094;-80
2022/01/12 05:56:04;;;;;;;37.53;14.93;;;;;;;;;;8402784;28;20048;-73
2022/01/12 06:00:10;;;;;;;30.23;12.25;;;;;;;;;;8401564;28;20051;-73
2022/01/12 06:04:13;;;;;;;80.15;21.17;;;;;;;;;;8403010;28;20049;-73
2022/01/12 06:08:15;;;;;;;22.10;8.57;;;;;;;;;;8402415;28;20090;-73
2022/01/12 06:12:18;;;;;;;36.10;12.35;;;;;;;;;;8402319;28;20163;-73
2022/01/12 06:16:23;;;;;;;22.98;9.05;;;;;;;;;;8402678;28;20070;-73
2022/01/12 06:20:27;;;;;;;17.83;8.05;;;;;;;;;;8401905;28;20055;-73
2022/01/12 06:24:29;;;;;;;15.25;8.00;;;;;;;;;;8402293;28;20476;-73
2022/01/12 06:28:41;;;;;;;19.30;8.40;;;;;;;;;;8402200;28;20044;-73
2022/01/12 06:32:45;;;;;;;20.83;7.80;;;;;;;;;;8401808;28;20510;-73
2022/01/12 06:36:48;;;;;;;23.48;7.78;;;;;;;;;;8401935;28;20047;-73
2022/01/12 06:40:51;;;;;;;26.45;9.40;;;;;;;;;;8401284;28;20163;-73
2022/01/12 06:44:57;;;;;;;24.60;9.27;;;;;;;;;;8401722;28;20066;-73
2022/01/12 06:49:00;;;;;;;28.35;11.60;;;;;;;;;;8401046;28;20078;-73
2022/01/12 06:53:03;;;;;;;14.43;7.63;;;;;;;;;;8401193;28;20055;-73
2022/01/12 06:57:06;;;;;;;19.55;8.88;;;;;;;;;;8401316;28;20549;-73
2022/01/12 07:01:09;;;;;;;24.85;9.25;;;;;;;;;;8400645;28;20052;-73
2022/01/12 07:05:13;;;;;;;20.55;6.75;;;;;;;;;;8401229;28;20481;-73
2022/01/12 07:09:16;;;;;;;22.02;10.75;;;;;;;;;;8400976;28;20068;-74
2022/01/12 07:13:18;;;;;;;32.00;13.38;;;;;;;;;;8400241;28;20052;-73
2022/01/12 07:17:21;;;;;;;26.80;13.23;;;;;;;;;;8400394;28;20057;-73
2022/01/12 07:21:25;;;;;;;30.63;11.52;;;;;;;;;;8400074;28;20041;-73
2022/01/12 07:25:28;;;;;;;37.17;13.88;;;;;;;;;;8399936;28;20052;-73
2022/01/12 07:29:31;;;;;;;18.90;8.25;;;;;;;;;;8399813;28;20090;-73
2022/01/12 07:33:35;;;;;;;23.80;10.77;;;;;;;;;;8400195;28;20106;-73
2022/01/12 07:37:39;;;;;;;23.25;9.98;;;;;;;;;;8399635;28;20476;-73
2022/01/12 07:41:42;;;;;;;17.08;9.13;;;;;;;;;;8399468;28;20064;-73
2022/01/12 07:45:45;;;;;;;22.65;10.25;;;;;;;;;;8399858;28;20071;-73
2022/01/12 07:49:48;;;;;;;23.58;10.88;;;;;;;;;;8399719;28;20049;-73
2022/01/12 07:53:51;;;;;;;27.17;11.10;;;;;;;;;;8399026;28;20056;-73
2022/01/12 07:57:54;;;;;;;25.45;11.30;;;;;;;;;;8398948;28;20045;-73
2022/01/12 08:01:57;;;;;;;22.20;10.68;;;;;;;;;;8397849;28;20071;-73
2022/01/12 08:06:01;;;;;;;29.35;8.88;;;;;;;;;;8399165;28;20439;-73
2022/01/12 08:10:06;;;;;;;22.70;9.35;;;;;;;;;;8399005;28;20542;-73
2022/01/12 08:14:09;;;;;;;18.83;7.25;;;;;;;;;;8399368;28;20483;-73
2022/01/12 08:18:12;;;;;;;24.17;6.47;;;;;;;;;;8398156;28;20056;-74
2022/01/12 08:22:15;;;;;;;14.02;7.43;;;;;;;;;;8398040;28;20044;-74
2022/01/12 08:26:19;;;;;;;17.70;8.75;;;;;;;;;;8398034;28;20052;-74
2022/01/12 08:30:28;;;;;;;23.10;11.18;;;;;;;;;;8398365;28;20048;-74
2022/01/12 08:34:32;;;;;;;18.73;9.82;;;;;;;;;;8397051;28;20048;-73
2022/01/12 08:38:35;;;;;;;27.73;12.48;;;;;;;;;;8398153;28;20439;-73
2022/01/12 08:42:39;;;;;;;17.52;7.68;;;;;;;;;;8397532;28;20099;-73
2022/01/12 08:46:45;;;;;;;20.48;9.40;;;;;;;;;;8375223;28;20091;-74
2022/01/12 08:50:47;;;;;;;17.55;8.63;;;;;;;;;;8358714;28;20053;-74
2022/01/12 08:54:50;;;;;;;17.70;7.88;;;;;;;;;;8362709;28;20045;-74
2022/01/12 08:58:54;;;;;;;17.90;9.63;;;;;;;;;;8364066;28;20045;-73
2022/01/12 09:02:57;;;;;;;19.13;8.35;;;;;;;;;;8364440;28;19995;-77
2022/01/12 09:07:00;;;;;;;13.48;6.70;;;;;;;;;;8365091;28;20050;-72
2022/01/12 09:11:03;;;;;;;14.75;5.68;;;;;;;;;;8363859;28;20052;-72
2022/01/12 09:15:09;;;;;;;54.47;14.82;;;;;;;;;;8363363;28;20131;-72
2022/01/12 09:19:13;;;;;;;17.13;7.40;;;;;;;;;;8363432;28;20076;-72
2022/01/12 09:23:16;;;;;;;25.52;9.70;;;;;;;;;;8363685;28;20128;-73
2022/01/12 09:27:19;;;;;;;16.00;6.28;;;;;;;;;;8364132;28;20049;-72
2022/01/12 09:31:24;;;;;;;13.98;7.05;;;;;;;;;;8364040;28;20404;-72
2022/01/12 09:35:28;;;;;;;19.83;7.40;;;;;;;;;;8364670;28;20041;-72
2022/01/12 09:39:35;;;;;;;12.15;6.10;;;;;;;;;;8363405;28;20065;-72
2022/01/12 09:43:40;;;;;;;17.02;7.35;;;;;;;;;;8363354;28;20049;-72
2022/01/12 09:47:47;;;;;;;19.42;9.07;;;;;;;;;;8367484;28;20128;-72
2022/01/12 09:51:51;;;;;;;19.20;7.10;;;;;;;;;;8378065;28;20130;-72
2022/01/12 09:55:55;;;;;;;12.88;6.47;;;;;;;;;;8363152;28;20063;-72
2022/01/12 10:00:01;;;;;;;16.80;7.60;;;;;;;;;;8362759;28;20136;-72
2022/01/12 10:04:15;;;;;;;14.18;6.82;;;;;;;;;;8363071;28;20037;-72
2022/01/12 10:08:19;;;;;;;31.90;10.40;;;;;;;;;;8363102;28;20485;-72
2022/01/12 10:12:22;;;;;;;22.35;8.88;;;;;;;;;;8362796;28;20049;-71
2022/01/12 10:16:27;;;;;;;15.15;7.50;;;;;;;;;;8362401;28;20095;-72
2022/01/12 10:20:47;;;;;;;15.52;5.93;;;;;;;;;;8362161;28;20580;-72
2022/01/12 10:24:53;;;;;;;17.40;6.80;;;;;;;;;;8363480;28;20041;-72
2022/01/12 10:29:04;;;;;;;14.63;6.82;;;;;;;;;;8369353;28;20048;-72
2022/01/12 10:33:10;;;;;;;31.93;12.60;;;;;;;;;;8368287;28;20481;-72
2022/01/12 10:37:17;;;;;;;19.35;7.45;;;;;;;;;;8368139;28;20045;-73
2022/01/12 10:41:19;;;;;;;37.20;13.20;;;;;;;;;;8368549;28;20055;-72
2022/01/12 10:45:22;;;;;;;18.65;7.55;;;;;;;;;;8368695;28;20052;-72
2022/01/12 10:49:25;;;;;;;13.25;6.53;;;;;;;;;;8367990;28;20056;-73
2022/01/12 10:53:35;;;;;;;19.95;9.00;;;;;;;;;;8367713;28;20460;-72
2022/01/12 10:57:40;;;;;;;65.95;21.70;;;;;;;;;;8367597;28;20045;-72
2022/01/12 11:01:43;;;;;;;78.32;27.08;;;;;;;;;;8367098;28;20045;-72
2022/01/12 11:05:49;;;;;;;25.73;12.15;;;;;;;;;;8367209;28;20076;-76
2022/01/12 11:09:56;;;;;;;23.48;9.25;;;;;;;;;;8367148;28;20504;-74
2022/01/12 11:14:01;;;;;;;58.53;32.35;;;;;;;;;;8367892;28;20056;-73
2022/01/12 11:18:04;;;;;;;21.85;8.45;;;;;;;;;;8366805;28;20049;-72
2022/01/12 11:22:17;;;;;;;53.15;17.08;;;;;;;;;;8367339;28;20488;-72
2022/01/12 11:26:26;;;;;;;21.88;11.30;;;;;;;;;;8367022;28;20049;-72
2022/01/12 11:30:43;;;;;;;18.77;8.80;;;;;;;;;;8366923;28;20069;-72
2022/01/12 11:34:47;;;;;;;25.85;12.25;;;;;;;;;;8366291;28;20052;-72
2022/01/12 11:39:02;;;;;;;24.98;12.13;;;;;;;;;;8366308;28;20090;-72
2022/01/12 11:43:19;;;;;;;20.20;8.48;;;;;;;;;;8366323;28;20492;-72
2022/01/12 11:47:26;;;;;;;23.20;8.90;;;;;;;;;;8365880;28;20132;-72
2022/01/12 11:51:37;;;;;;;24.67;10.55;;;;;;;;;;8363425;28;20047;-73
2022/01/12 11:55:42;;;;;;;29.52;10.55;;;;;;;;;;8362940;28;20049;-73
2022/01/12 11:59:58;;;;;;;23.40;8.57;;;;;;;;;;8365215;28;20449;-73
2022/01/12 12:04:06;;;;;;;19.23;9.05;;;;;;;;;;8365360;28;20045;-78
2022/01/12 12:08:10;;;;;;;16.75;8.88;;;;;;;;;;8365096;28;20052;-73
2022/01/12 12:12:17;;;;;;;66.78;19.98;;;;;;;;;;8375814;28;20411;-75
2022/01/12 12:16:21;;;;;;;39.38;15.55;;;;;;;;;;8397601;28;20127;-73
2022/01/12 12:20:26;;;;;;;45.92;15.82;;;;;;;;;;8396261;28;20052;-72
2022/01/12 12:24:29;;;;;;;199.98;60.33;;;;;;;;;;8397335;28;20220;-72
2022/01/12 12:28:32;;;;;;;41.40;18.50;;;;;;;;;;8397224;28;20408;-72
2022/01/12 12:32:39;;;;;;;82.55;28.67;;;;;;;;;;8397463;28;20040;-72
2022/01/12 12:36:43;;;;;;;31.02;13.82;;;;;;;;;;8398093;28;20474;-72
2022/01/12 12:40:47;;;;;;;77.20;27.92;;;;;;;;;;8398439;28;20464;-72
2022/01/12 12:44:55;;;;;;;53.70;19.08;;;;;;;;;;8397478;28;20068;-72
2022/01/12 12:49:08;;;;;;;61.28;19.10;;;;;;;;;;8392669;28;20795;-72
2022/01/12 12:53:11;;;;;;;;;;;;;;;;;;8364444;28;20116;-72
2022/01/12 12:57:20;;;;;;;;;;;;;;;;;;8364234;28;19920;-72
2022/01/12 13:01:26;;;;;;;33.33;12.02;;;;;;;;;;8363583;28;19920;-72
2022/01/12 13:05:34;;;;;;;54.17;19.13;;;;;;;;;;8363441;28;20073;-72
2022/01/12 13:09:39;;;;;;;38.67;13.48;;;;;;;;;;8363609;28;20136;-72
2022/01/12 13:13:42;;;;;;;36.97;14.13;;;;;;;;;;8363460;28;20481;-72
2022/01/12 13:17:46;;;;;;;148.57;41.78;;;;;;;;;;8363159;28;20099;-72
2022/01/12 13:21:51;;;;;;;75.00;18.85;;;;;;;;;;8363532;28;20053;-72
2022/01/12 13:25:55;;;;;;;62.53;17.73;;;;;;;;;;8363390;28;20051;-73
2022/01/12 13:29:58;;;;;;;75.35;21.70;;;;;;;;;;8363271;28;20045;-72
2022/01/12 13:34:04;;;;;;;81.05;29.00;;;;;;;;;;8362829;28;20056;-72
2022/01/12 13:38:10;;;;;;;77.95;25.58;;;;;;;;;;8362765;28;20072;-71
2022/01/12 13:42:14;;;;;;;46.67;17.58;;;;;;;;;;8362930;28;20059;-72
2022/01/12 13:46:19;;;;;;;32.33;14.13;;;;;;;;;;8362999;28;20049;-72
2022/01/12 13:50:31;;;;;;;125.13;35.28;;;;;;;;;;8362590;28;20504;-72
2022/01/12 13:54:41;;;;;;;179.82;56.03;;;;;;;;;;8362876;28;20493;-72
2022/01/12 13:58:45;;;;;;;66.63;25.63;;;;;;;;;;8362701;28;20053;-72
2022/01/12 14:02:47;;;;;;;160.70;31.88;;;;;;;;;;8367930;28;20044;-72
2022/01/12 14:06:53;;;;;;;92.80;21.92;;;;;;;;;;8369033;28;20052;-73
2022/01/12 14:10:58;;;;;;;64.50;21.10;;;;;;;;;;8368851;28;20248;-73
2022/01/12 14:15:08;;;;;;;46.97;14.18;;;;;;;;;;8368836;28;20447;-73
2022/01/12 14:19:16;;;;;;;44.50;16.23;;;;;;;;;;8368012;28;20163;-74
2022/01/12 14:23:23;;;;;;;33.03;14.60;;;;;;;;;;8367867;28;20424;-73
2022/01/12 14:27:38;;;;;;;62.47;19.42;;;;;;;;;;8368140;28;20056;-72
2022/01/12 14:31:46;;;;;;;66.55;22.38;;;;;;;;;;8367961;28;20052;-73
2022/01/12 14:35:49;;;;;;;83.75;31.00;;;;;;;;;;8367276;28;20091;-73
2022/01/12 14:39:55;;;;;;;101.90;32.80;;;;;;;;;;8369042;28;20098;-73
2022/01/12 14:44:01;;;;;;;356.20;109.15;;;;;;;;;;8400924;28;20522;-73
2022/01/12 14:48:07;;;;;;;204.70;62.05;;;;;;;;;;8401065;28;20403;-72
2022/01/12 14:52:11;;;;;;;118.25;31.48;;;;;;;;;;8401003;28;20396;-73
2022/01/12 14:56:14;;;;;;;139.02;35.63;;;;;;;;;;8400515;28;20051;-72
2022/01/12 15:00:24;;;;;;;87.10;24.30;;;;;;;;;;8400847;28;20052;-72
2022/01/12 15:04:28;;;;;;;69.40;23.48;;;;;;;;;;8400675;28;20069;-73
2022/01/12 15:08:31;;;;;;;74.53;26.98;;;;;;;;;;8401059;28;20045;-72
2022/01/12 15:12:38;;;;;;;74.40;28.88;;;;;;;;;;8400570;28;20547;-72
2022/01/12 15:16:42;;;;;;;109.85;41.75;;;;;;;;;;8400605;28;20050;-73
2022/01/12 15:20:46;;;;;;;82.78;30.33;;;;;;;;;;8400297;28;20048;-73
2022/01/12 15:24:49;;;;;;;179.30;43.67;;;;;;;;;;8400550;28;20135;-73
2022/01/12 15:28:53;;;;;;;309.30;75.05;;;;;;;;;;8399896;28;20487;-73
2022/01/12 15:32:57;;;;;;;142.82;39.42;;;;;;;;;;8399877;28;20131;-72
2022/01/12 15:37:01;;;;;;;60.80;19.25;;;;;;;;;;8386034;28;20048;-73
2022/01/12 15:41:03;;;;;;;91.05;26.52;;;;;;;;;;8355452;28;20048;-72
2022/01/12 15:45:11;;;;;;;93.72;28.85;;;;;;;;;;8368261;28;20060;-75
2022/01/12 15:49:32;;;;;;;64.57;22.08;;;;;;;;;;8369120;28;20045;-73
2022/01/12 15:53:49;;;;;;;95.60;27.08;;;;;;;;;;8363705;28;20052;-73
2022/01/12 15:57:55;;;;;;;183.13;46.95;;;;;;;;;;8353934;28;20102;-73
2022/01/12 16:02:04;;;;;;;76.50;22.95;;;;;;;;;;8363776;28;20135;-73
2022/01/12 16:06:18;;;;;;;64.68;23.48;;;;;;;;;;8364140;28;20052;-73
2022/01/12 16:10:33;;;;;;;120.82;37.05;;;;;;;;;;8365287;28;20056;-73
2022/01/12 16:14:39;;;;;;;75.28;25.27;;;;;;;;;;8364904;28;20076;-73
2022/01/12 16:18:50;;;;;;;77.15;27.90;;;;;;;;;;8364001;28;20053;-73
2022/01/12 16:23:00;;;;;;;44.83;17.17;;;;;;;;;;8364520;28;20044;-73
2022/01/12 16:27:14;;;;;;;106.88;31.30;;;;;;;;;;8364648;28;20049;-73
2022/01/12 16:36:15;;;;;;;74.88;24.67;;;;;;;;;;8364843;28;20064;-73
2022/01/12 16:40:21;;;;;;;101.63;30.30;;;;;;;;;;8363476;28;20045;-73
2022/01/12 16:44:28;;;;;;;157.38;45.92;;;;;;;;;;8364834;28;20697;-74
2022/01/12 16:48:44;;;;;;;81.78;29.17;;;;;;;;;;8361831;28;20102;-74
2022/01/12 16:52:48;;;;;;;98.47;37.35;;;;;;;;;;8364005;28;20049;-74
2022/01/12 16:56:54;;;;;;;64.95;28.17;;;;;;;;;;8363202;28;20045;-74
2022/01/12 17:01:04;;;;;;;75.85;23.73;;;;;;;;;;8363886;28;20053;-74
2022/01/12 17:05:08;;;;;;;184.52;48.53;;;;;;;;;;8359272;28;20477;-73
2022/01/12 17:09:12;;;;;;;95.45;28.60;;;;;;;;;;8361702;28;20566;-80
2022/01/12 17:13:16;;;;;;;53.47;20.60;;;;;;;;;;8361132;28;20101;-74
2022/01/12 17:17:45;;;;;;;78.57;30.15;;;;;;;;;;8360560;28;20558;-74
2022/01/12 17:22:00;;;;;;;74.50;27.27;;;;;;;;;;8361271;28;20416;-73
2022/01/12 17:26:11;;;;;;;53.53;21.13;;;;;;;;;;8361432;28;20107;-75
2022/01/12 17:30:19;;;;;;;48.35;18.77;;;;;;;;;;8361121;28;20131;-73
2022/01/12 17:34:31;;;;;;;78.88;27.23;;;;;;;;;;8363044;28;20102;-73
2022/01/12 17:38:39;;;;;;;69.43;24.60;;;;;;;;;;8368769;28;20409;-73
2022/01/12 17:42:57;;;;;;;52.22;21.58;;;;;;;;;;8367034;28;20056;-73
2022/01/12 17:47:25;;;;;;;132.35;46.08;;;;;;;;;;8368482;28;20041;-74
2022/01/12 17:51:52;;;;;;;93.10;32.10;;;;;;;;;;8368785;28;20049;-74
2022/01/12 17:55:58;;;;;;;107.00;30.13;;;;;;;;;;8367400;28;20045;-74
2022/01/12 18:00:04;;;;;;;149.20;38.85;;;;;;;;;;8368013;28;20099;-74
2022/01/12 18:04:10;;;;;;;84.68;27.38;;;;;;;;;;8368158;28;20120;-75
2022/01/12 18:08:15;;;;;;;74.15;28.08;;;;;;;;;;8367742;28;20052;-75
2022/01/12 18:12:18;;;;;;;63.88;24.60;;;;;;;;;;8367263;28;20044;-74
2022/01/12 18:16:22;;;;;;;55.30;19.85;;;;;;;;;;8364959;28;20488;-80
2022/01/12 18:20:26;;;;;;;79.72;27.35;;;;;;;;;;8367161;28;20041;-74
2022/01/12 18:24:29;;;;;;;70.22;24.80;;;;;;;;;;8366702;28;20167;-74
2022/01/12 18:28:32;;;;;;;79.30;29.67;;;;;;;;;;8366587;28;20049;-74
2022/01/12 18:32:35;;;;;;;123.28;38.10;;;;;;;;;;8367138;28;20123;-76
2022/01/12 18:36:40;;;;;;;51.65;19.10;;;;;;;;;;8367098;28;20041;-80
2022/01/12 18:40:50;;;;;;;71.93;27.65;;;;;;;;;;8366452;28;20382;-73
2022/01/12 18:44:54;;;;;;;71.13;24.95;;;;;;;;;;8365599;28;20048;-73
2022/01/12 18:48:58;;;;;;;60.42;21.05;;;;;;;;;;8364034;28;20049;-74
2022/01/12 18:53:02;;;;;;;63.60;26.08;;;;;;;;;;8362334;28;20135;-73
2022/01/12 18:57:07;;;;;;;54.85;20.35;;;;;;;;;;8359510;28;20049;-74
2022/01/12 19:01:12;;;;;;;55.78;22.65;;;;;;;;;;8364791;28;20052;-73
2022/01/12 19:05:17;;;;;;;99.00;33.03;;;;;;;;;;8365088;28;20052;-79
2022/01/12 19:09:22;;;;;;;58.05;21.83;;;;;;;;;;8367174;28;20416;-73
2022/01/12 19:13:26;;;;;;;53.05;21.55;;;;;;;;;;8367494;28;20400;-74
2022/01/12 19:17:30;;;;;;;70.20;23.00;;;;;;;;;;8366714;28;20056;-73
2022/01/12 19:21:33;;;;;;;52.05;21.33;;;;;;;;;;8367012;28;20044;-73
2022/01/12 19:25:39;;;;;;;57.42;23.02;;;;;;;;;;8366816;28;20049;-73
2022/01/12 19:29:43;;;;;;;47.80;20.50;;;;;;;;;;8366602;28;20041;-73
2022/01/12 19:33:46;;;;;;;57.55;24.00;;;;;;;;;;8363327;28;20033;-74
2022/01/12 19:37:51;;;;;;;63.45;24.83;;;;;;;;;;8362845;28;20045;-73
2022/01/12 19:41:58;;;;;;;48.58;21.75;;;;;;;;;;8364954;28;20410;-74
2022/01/12 19:46:04;;;;;;;66.45;25.05;;;;;;;;;;8361967;28;20040;-73
2022/01/12 19:50:08;;;;;;;63.38;22.80;;;;;;;;;;8364066;28;20045;-73
2022/01/12 19:54:28;;;;;;;53.22;20.95;;;;;;;;;;8363450;28;20041;-74
2022/01/12 19:58:48;;;;;;;73.07;26.00;;;;;;;;;;8361449;28;20067;-73
2022/01/12 20:03:08;;;;;;;53.88;21.52;;;;;;;;;;8363208;28;20064;-73
2022/01/12 20:07:14;;;;;;;57.92;22.58;;;;;;;;;;8363316;28;20052;-73
2022/01/12 20:11:22;;;;;;;64.50;22.75;;;;;;;;;;8364770;28;20165;-73
2022/01/12 20:15:27;;;;;;;81.60;27.52;;;;;;;;;;8365853;28;20045;-73
2022/01/12 20:24:25;;;;;;;88.78;28.88;;;;;;;;;;8365181;28;20045;-73
2022/01/12 20:28:30;;;;;;;91.93;31.35;;;;;;;;;;8365114;28;20057;-76
2022/01/12 20:32:36;;;;;;;68.20;23.77;;;;;;;;;;8365016;28;20119;-73
2022/01/12 20:36:40;;;;;;;108.68;31.88;;;;;;;;;;8364880;28;20416;-73
2022/01/12 20:40:44;;;;;;;59.50;19.27;;;;;;;;;;8364703;28;20041;-74
2022/01/12 20:44:49;;;;;;;77.40;23.83;;;;;;;;;;8364599;28;20467;-73
2022/01/12 20:48:54;;;;;;;65.45;24.70;;;;;;;;;;8364608;28;20412;-73
2022/01/12 20:52:58;;;;;;;86.90;30.13;;;;;;;;;;8364415;28;20083;-73
2022/01/12 20:57:02;;;;;;;73.90;24.35;;;;;;;;;;8364805;28;20051;-73
2022/01/12 21:01:07;;;;;;;74.70;24.45;;;;;;;;;;8364641;28;20044;-73
2022/01/12 21:05:13;;;;;;;77.10;26.67;;;;;;;;;;8364556;28;20052;-73
2022/01/12 21:09:17;;;;;;;62.25;20.98;;;;;;;;;;8364253;28;20075;-73
2022/01/12 21:13:20;;;;;;;54.53;19.38;;;;;;;;;;8363920;28;20052;-73
2022/01/12 21:17:23;;;;;;;70.32;24.33;;;;;;;;;;8363595;28;20144;-73
2022/01/12 21:21:31;;;;;;;44.75;18.52;;;;;;;;;;8363676;28;20045;-73
2022/01/12 21:25:36;;;;;;;58.63;21.95;;;;;;;;;;8363627;28;20087;-73
2022/01/12 21:29:38;;;;;;;48.97;19.20;;;;;;;;;;8363640;28;20124;-73
2022/01/12 21:33:42;;;;;;;66.18;23.08;;;;;;;;;;8363558;28;20041;-74
2022/01/12 21:37:50;;;;;;;57.47;20.88;;;;;;;;;;8363578;28;20416;-73
2022/01/12 21:41:55;;;;;;;52.38;22.23;;;;;;;;;;8363957;28;20078;-73
2022/01/12 21:45:58;;;;;;;46.47;18.98;;;;;;;;;;8363477;28;20140;-80
2022/01/12 21:50:02;;;;;;;51.00;19.30;;;;;;;;;;8362525;28;20053;-73
2022/01/12 21:54:07;;;;;;;46.47;19.48;;;;;;;;;;8363376;28;20049;-73
2022/01/12 21:58:11;;;;;;;37.17;17.77;;;;;;;;;;8363212;28;20053;-73
2022/01/12 22:02:17;;;;;;;41.45;18.02;;;;;;;;;;8362228;28;20048;-73
2022/01/12 22:06:20;;;;;;;34.42;16.08;;;;;;;;;;8363167;28;20049;-73
2022/01/12 22:10:24;;;;;;;45.60;19.00;;;;;;;;;;8363048;28;20053;-73
2022/01/12 22:14:28;;;;;;;46.92;18.63;;;;;;;;;;8362997;28;20045;-73
2022/01/12 22:18:32;;;;;;;49.22;19.02;;;;;;;;;;8362941;28;20060;-73
2022/01/12 22:22:35;;;;;;;53.22;18.75;;;;;;;;;;8366389;28;20041;-73
2022/01/12 22:26:39;;;;;;;51.40;19.80;;;;;;;;;;8368925;28;20128;-74
2022/01/12 22:30:42;;;;;;;52.25;20.67;;;;;;;;;;8368780;28;20047;-73
2022/01/12 22:34:45;;;;;;;56.35;19.65;;;;;;;;;;8368655;28;20045;-73
2022/01/12 22:38:48;;;;;;;96.50;36.88;;;;;;;;;;8368547;28;20069;-73
2022/01/12 22:42:52;;;;;;;58.70;22.83;;;;;;;;;;8368417;28;20128;-73
2022/01/12 22:46:55;;;;;;;55.60;19.85;;;;;;;;;;8368764;28;20049;-73
2022/01/12 22:51:00;;;;;;;62.08;24.85;;;;;;;;;;8368258;28;20060;-73
2022/01/12 22:55:04;;;;;;;58.25;21.25;;;;;;;;;;8368030;28;20049;-73
2022/01/12 22:59:09;;;;;;;128.88;40.10;;;;;;;;;;8368078;28;20096;-73
2022/01/12 23:03:12;;;;;;;50.08;20.30;;;;;;;;;;8367837;28;20050;-74
2022/01/12 23:07:15;;;;;;;64.35;24.98;;;;;;;;;;8367753;28;20049;-73
2022/01/12 23:11:21;;;;;;;55.63;22.15;;;;;;;;;;8368047;28;20055;-73
2022/01/12 23:15:25;;;;;;;75.20;25.85;;;;;;;;;;8367492;28;20099;-73
2022/01/12 23:19:28;;;;;;;64.47;24.33;;;;;;;;;;8367433;28;20056;-73
2022/01/12 23:23:30;;;;;;;72.90;26.17;;;;;;;;;;8366645;28;20045;-73
2022/01/12 23:27:33;;;;;;;73.00;28.73;;;;;;;;;;8367269;28;20418;-73
2022/01/12 23:31:38;;;;;;;90.78;30.98;;;;;;;;;;8366760;28;20045;-73
2022/01/12 23:48:51;;;;;;;66.30;25.20;;;;;;;;;;8333418;28;20128;-73
2022/01/12 23:55:00;;;;;;;66.93;25.20;;;;;;;;;;8333892;28;20111;-73
2022/01/12 23:57:16;;;;;;;54.78;22.50;;;;;;;;;;8333108;28;20091;-73
